sensor_id;sensor_type;location;lat;lon;timestamp;P1;durP1;ratioP1;P2;durP2;ratioP2
72275;SDS011;61204;49.980;8.358;2022-07-19T00:00:03;3.33;;;1.95;;
72275;SDS011;61204;49.980;8.358;2022-07-19T00:02:39;8.02;;;2.35;;
72275;SDS011;61204;49.980;8.358;2022-07-19T00:05:06;6.22;;;2.28;;
72275;SDS011;61204;49.980;8.358;2022-07-19T00:07:35;5.55;;;2.47;;
72275;SDS011;61204;49.980;8.358;2022-07-19T00:10:03;10.77;;;2.47;;
72275;SDS011;61204;49.980;8.358;2022-07-19T00:12:34;3.75;;;1.60;;
72275;SDS011;61204;49.980;8.358;2022-07-19T00:15:02;2.72;;;1.98;;
72275;SDS011;61204;49.980;8.358;2022-07-19T00:17:33;6.20;;;2.25;;
72275;SDS011;61204;49.980;8.358;2022-07-19T00:19:59;3.90;;;2.20;;
72275;SDS011;61204;49.980;8.358;2022-07-19T00:22:25;6.40;;;2.10;;
72275;SDS011;61204;49.980;8.358;2022-07-19T00:24:51;3.70;;;1.80;;
72275;SDS011;61204;49.980;8.358;2022-07-19T00:27:17;7.18;;;2.75;;
72275;SDS011;61204;49.980;8.358;2022-07-19T00:29:42;5.82;;;2.42;;
72275;SDS011;61204;49.980;8.358;2022-07-19T00:32:08;5.43;;;2.30;;
72275;SDS011;61204;49.980;8.358;2022-07-19T00:34:34;3.65;;;1.88;;
72275;SDS011;61204;49.980;8.358;2022-07-19T00:36:59;2.55;;;1.80;;
72275;SDS011;61204;49.980;8.358;2022-07-19T00:39:25;3.13;;;1.75;;
72275;SDS011;61204;49.980;8.358;2022-07-19T00:41:53;5.40;;;1.90;;
72275;SDS011;61204;49.980;8.358;2022-07-19T00:44:20;4.82;;;1.98;;
72275;SDS011;61204;49.980;8.358;2022-07-19T00:46:47;6.22;;;2.13;;
72275;SDS011;61204;49.980;8.358;2022-07-19T00:49:14;3.92;;;1.70;;
72275;SDS011;61204;49.980;8.358;2022-07-19T00:51:40;2.83;;;1.55;;
72275;SDS011;61204;49.980;8.358;2022-07-19T00:54:10;5.18;;;2.03;;
72275;SDS011;61204;49.980;8.358;2022-07-19T00:56:38;6.68;;;1.70;;
72275;SDS011;61204;49.980;8.358;2022-07-19T00:59:08;5.97;;;1.70;;
72275;SDS011;61204;49.980;8.358;2022-07-19T01:01:37;3.55;;;1.67;;
72275;SDS011;61204;49.980;8.358;2022-07-19T01:04:03;3.80;;;2.17;;
72275;SDS011;61204;49.980;8.358;2022-07-19T01:06:28;4.30;;;2.05;;
72275;SDS011;61204;49.980;8.358;2022-07-19T01:08:54;3.58;;;2.03;;
72275;SDS011;61204;49.980;8.358;2022-07-19T01:16:21;3.00;;;1.73;;
72275;SDS011;61204;49.980;8.358;2022-07-19T01:18:49;4.97;;;2.55;;
72275;SDS011;61204;49.980;8.358;2022-07-19T01:21:25;4.70;;;2.08;;
72275;SDS011;61204;49.980;8.358;2022-07-19T01:26:17;4.40;;;2.33;;
72275;SDS011;61204;49.980;8.358;2022-07-19T01:28:44;4.25;;;2.10;;
72275;SDS011;61204;49.980;8.358;2022-07-19T01:31:19;5.82;;;1.88;;
72275;SDS011;61204;49.980;8.358;2022-07-19T01:33:47;7.68;;;2.90;;
72275;SDS011;61204;49.980;8.358;2022-07-19T01:36:13;6.20;;;2.00;;
72275;SDS011;61204;49.980;8.358;2022-07-19T01:38:39;3.90;;;2.30;;
72275;SDS011;61204;49.980;8.358;2022-07-19T01:41:05;4.80;;;2.40;;
72275;SDS011;61204;49.980;8.358;2022-07-19T01:43:32;5.40;;;2.08;;
72275;SDS011;61204;49.980;8.358;2022-07-19T01:45:59;4.63;;;2.05;;
72275;SDS011;61204;49.980;8.358;2022-07-19T01:48:26;5.95;;;2.72;;
72275;SDS011;61204;49.980;8.358;2022-07-19T01:50:51;5.75;;;2.58;;
72275;SDS011;61204;49.980;8.358;2022-07-19T01:53:17;4.60;;;2.33;;
72275;SDS011;61204;49.980;8.358;2022-07-19T01:55:43;4.03;;;2.30;;
72275;SDS011;61204;49.980;8.358;2022-07-19T01:58:12;5.03;;;2.15;;
72275;SDS011;61204;49.980;8.358;2022-07-19T02:00:37;7.45;;;2.55;;
72275;SDS011;61204;49.980;8.358;2022-07-19T02:03:03;3.60;;;1.98;;
72275;SDS011;61204;49.980;8.358;2022-07-19T02:05:28;3.05;;;1.85;;
72275;SDS011;61204;49.980;8.358;2022-07-19T02:07:54;4.47;;;2.20;;
72275;SDS011;61204;49.980;8.358;2022-07-19T02:10:20;4.90;;;2.38;;
72275;SDS011;61204;49.980;8.358;2022-07-19T02:12:48;3.20;;;2.30;;
72275;SDS011;61204;49.980;8.358;2022-07-19T02:15:13;6.20;;;2.67;;
72275;SDS011;61204;49.980;8.358;2022-07-19T02:17:39;4.78;;;2.65;;
72275;SDS011;61204;49.980;8.358;2022-07-19T02:20:05;6.50;;;2.63;;
72275;SDS011;61204;49.980;8.358;2022-07-19T02:22:34;8.02;;;2.95;;
72275;SDS011;61204;49.980;8.358;2022-07-19T02:25:00;5.75;;;2.75;;
72275;SDS011;61204;49.980;8.358;2022-07-19T02:27:26;10.57;;;2.97;;
72275;SDS011;61204;49.980;8.358;2022-07-19T02:29:53;7.47;;;2.80;;
72275;SDS011;61204;49.980;8.358;2022-07-19T02:32:21;5.35;;;2.95;;
72275;SDS011;61204;49.980;8.358;2022-07-19T02:34:49;4.88;;;3.03;;
72275;SDS011;61204;49.980;8.358;2022-07-19T02:37:15;6.60;;;2.60;;
72275;SDS011;61204;49.980;8.358;2022-07-19T02:39:43;9.70;;;3.13;;
72275;SDS011;61204;49.980;8.358;2022-07-19T02:42:08;4.72;;;2.53;;
72275;SDS011;61204;49.980;8.358;2022-07-19T02:44:34;7.07;;;3.30;;
72275;SDS011;61204;49.980;8.358;2022-07-19T02:46:59;9.35;;;3.20;;
72275;SDS011;61204;49.980;8.358;2022-07-19T02:49:25;8.73;;;3.47;;
72275;SDS011;61204;49.980;8.358;2022-07-19T02:51:51;7.15;;;3.58;;
72275;SDS011;61204;49.980;8.358;2022-07-19T02:54:16;5.70;;;3.80;;
72275;SDS011;61204;49.980;8.358;2022-07-19T02:56:42;7.95;;;3.38;;
72275;SDS011;61204;49.980;8.358;2022-07-19T02:59:07;5.85;;;3.35;;
72275;SDS011;61204;49.980;8.358;2022-07-19T03:01:33;4.93;;;3.03;;
72275;SDS011;61204;49.980;8.358;2022-07-19T03:03:59;7.68;;;3.38;;
72275;SDS011;61204;49.980;8.358;2022-07-19T03:06:24;8.75;;;3.67;;
72275;SDS011;61204;49.980;8.358;2022-07-19T03:08:51;4.50;;;3.53;;
72275;SDS011;61204;49.980;8.358;2022-07-19T03:11:19;9.75;;;3.47;;
72275;SDS011;61204;49.980;8.358;2022-07-19T03:13:45;7.32;;;3.47;;
72275;SDS011;61204;49.980;8.358;2022-07-19T03:16:10;7.03;;;3.30;;
72275;SDS011;61204;49.980;8.358;2022-07-19T03:18:36;8.70;;;3.00;;
72275;SDS011;61204;49.980;8.358;2022-07-19T03:21:02;7.38;;;3.15;;
72275;SDS011;61204;49.980;8.358;2022-07-19T03:23:30;10.50;;;3.10;;
72275;SDS011;61204;49.980;8.358;2022-07-19T03:25:59;7.40;;;3.58;;
72275;SDS011;61204;49.980;8.358;2022-07-19T03:28:26;5.30;;;2.70;;
72275;SDS011;61204;49.980;8.358;2022-07-19T03:30:52;9.38;;;3.17;;
72275;SDS011;61204;49.980;8.358;2022-07-19T03:33:18;5.07;;;2.65;;
72275;SDS011;61204;49.980;8.358;2022-07-19T03:35:44;7.82;;;3.28;;
72275;SDS011;61204;49.980;8.358;2022-07-19T03:38:11;8.52;;;3.40;;
72275;SDS011;61204;49.980;8.358;2022-07-19T03:40:38;10.18;;;3.92;;
72275;SDS011;61204;49.980;8.358;2022-07-19T03:43:05;5.60;;;3.13;;
72275;SDS011;61204;49.980;8.358;2022-07-19T03:45:31;6.28;;;2.90;;
72275;SDS011;61204;49.980;8.358;2022-07-19T03:47:58;7.15;;;2.90;;
72275;SDS011;61204;49.980;8.358;2022-07-19T03:50:24;9.02;;;3.10;;
72275;SDS011;61204;49.980;8.358;2022-07-19T03:52:49;8.73;;;3.47;;
72275;SDS011;61204;49.980;8.358;2022-07-19T03:55:17;8.73;;;3.03;;
72275;SDS011;61204;49.980;8.358;2022-07-19T03:57:44;5.30;;;3.30;;
72275;SDS011;61204;49.980;8.358;2022-07-19T04:00:14;9.02;;;3.28;;
72275;SDS011;61204;49.980;8.358;2022-07-19T04:02:41;9.45;;;3.15;;
72275;SDS011;61204;49.980;8.358;2022-07-19T04:05:07;7.28;;;3.42;;
72275;SDS011;61204;49.980;8.358;2022-07-19T04:07:34;5.70;;;3.20;;
72275;SDS011;61204;49.980;8.358;2022-07-19T04:10:00;5.18;;;2.92;;
72275;SDS011;61204;49.980;8.358;2022-07-19T04:12:29;9.65;;;3.03;;
72275;SDS011;61204;49.980;8.358;2022-07-19T04:14:54;5.72;;;3.10;;
72275;SDS011;61204;49.980;8.358;2022-07-19T04:17:29;5.78;;;2.80;;
72275;SDS011;61204;49.980;8.358;2022-07-19T04:20:05;6.22;;;2.90;;
72275;SDS011;61204;49.980;8.358;2022-07-19T04:22:33;5.10;;;2.80;;
72275;SDS011;61204;49.980;8.358;2022-07-19T04:24:59;8.35;;;3.00;;
72275;SDS011;61204;49.980;8.358;2022-07-19T04:27:27;8.45;;;2.90;;
72275;SDS011;61204;49.980;8.358;2022-07-19T04:29:58;5.15;;;2.72;;
72275;SDS011;61204;49.980;8.358;2022-07-19T04:32:24;5.63;;;2.88;;
72275;SDS011;61204;49.980;8.358;2022-07-19T04:35:07;4.70;;;2.15;;
72275;SDS011;61204;49.980;8.358;2022-07-19T04:37:39;6.93;;;2.28;;
72275;SDS011;61204;49.980;8.358;2022-07-19T04:40:16;7.43;;;2.47;;
72275;SDS011;61204;49.980;8.358;2022-07-19T04:42:42;8.48;;;2.92;;
72275;SDS011;61204;49.980;8.358;2022-07-19T04:45:16;4.40;;;2.45;;
72275;SDS011;61204;49.980;8.358;2022-07-19T04:47:56;4.97;;;2.35;;
72275;SDS011;61204;49.980;8.358;2022-07-19T04:50:27;4.13;;;2.25;;
72275;SDS011;61204;49.980;8.358;2022-07-19T04:52:53;6.15;;;2.35;;
72275;SDS011;61204;49.980;8.358;2022-07-19T04:55:23;4.28;;;2.22;;
72275;SDS011;61204;49.980;8.358;2022-07-19T04:57:48;6.60;;;2.50;;
72275;SDS011;61204;49.980;8.358;2022-07-19T05:00:14;7.25;;;2.08;;
72275;SDS011;61204;49.980;8.358;2022-07-19T05:02:43;6.53;;;2.22;;
72275;SDS011;61204;49.980;8.358;2022-07-19T05:05:09;3.25;;;1.98;;
72275;SDS011;61204;49.980;8.358;2022-07-19T05:07:36;5.15;;;2.28;;
72275;SDS011;61204;49.980;8.358;2022-07-19T05:10:11;6.18;;;2.45;;
72275;SDS011;61204;49.980;8.358;2022-07-19T05:12:37;7.93;;;2.70;;
72275;SDS011;61204;49.980;8.358;2022-07-19T05:15:04;4.18;;;2.10;;
72275;SDS011;61204;49.980;8.358;2022-07-19T05:17:32;6.30;;;2.75;;
72275;SDS011;61204;49.980;8.358;2022-07-19T05:19:58;4.60;;;2.35;;
72275;SDS011;61204;49.980;8.358;2022-07-19T05:22:31;8.60;;;2.70;;
72275;SDS011;61204;49.980;8.358;2022-07-19T05:25:03;12.85;;;3.33;;
72275;SDS011;61204;49.980;8.358;2022-07-19T05:27:34;5.38;;;2.45;;
72275;SDS011;61204;49.980;8.358;2022-07-19T05:30:04;5.70;;;3.03;;
72275;SDS011;61204;49.980;8.358;2022-07-19T05:32:31;9.35;;;3.35;;
72275;SDS011;61204;49.980;8.358;2022-07-19T05:35:00;12.45;;;2.53;;
72275;SDS011;61204;49.980;8.358;2022-07-19T05:37:31;4.60;;;2.30;;
72275;SDS011;61204;49.980;8.358;2022-07-19T05:39:57;6.82;;;2.83;;
72275;SDS011;61204;49.980;8.358;2022-07-19T05:42:22;8.35;;;2.88;;
72275;SDS011;61204;49.980;8.358;2022-07-19T05:44:48;4.97;;;2.20;;
72275;SDS011;61204;49.980;8.358;2022-07-19T05:47:13;10.07;;;2.47;;
72275;SDS011;61204;49.980;8.358;2022-07-19T05:49:40;4.40;;;2.45;;
72275;SDS011;61204;49.980;8.358;2022-07-19T05:52:06;6.38;;;2.70;;
72275;SDS011;61204;49.980;8.358;2022-07-19T05:54:32;6.90;;;2.75;;
72275;SDS011;61204;49.980;8.358;2022-07-19T05:56:59;11.45;;;2.78;;
72275;SDS011;61204;49.980;8.358;2022-07-19T05:59:25;6.53;;;2.30;;
72275;SDS011;61204;49.980;8.358;2022-07-19T06:01:51;10.05;;;2.35;;
72275;SDS011;61204;49.980;8.358;2022-07-19T06:04:16;8.27;;;2.38;;
72275;SDS011;61204;49.980;8.358;2022-07-19T06:06:42;6.22;;;2.22;;
72275;SDS011;61204;49.980;8.358;2022-07-19T06:09:08;6.80;;;2.20;;
72275;SDS011;61204;49.980;8.358;2022-07-19T06:11:36;6.78;;;2.15;;
72275;SDS011;61204;49.980;8.358;2022-07-19T06:14:05;6.80;;;2.35;;
72275;SDS011;61204;49.980;8.358;2022-07-19T06:16:33;11.25;;;2.30;;
72275;SDS011;61204;49.980;8.358;2022-07-19T06:19:03;3.35;;;1.80;;
72275;SDS011;61204;49.980;8.358;2022-07-19T06:21:30;8.13;;;2.22;;
72275;SDS011;61204;49.980;8.358;2022-07-19T06:23:56;7.10;;;2.28;;
72275;SDS011;61204;49.980;8.358;2022-07-19T06:26:24;6.22;;;2.38;;
72275;SDS011;61204;49.980;8.358;2022-07-19T06:28:51;6.38;;;2.35;;
72275;SDS011;61204;49.980;8.358;2022-07-19T06:31:20;8.20;;;2.45;;
72275;SDS011;61204;49.980;8.358;2022-07-19T06:33:48;6.10;;;2.75;;
72275;SDS011;61204;49.980;8.358;2022-07-19T06:36:16;7.75;;;2.70;;
72275;SDS011;61204;49.980;8.358;2022-07-19T06:38:44;10.23;;;2.60;;
72275;SDS011;61204;49.980;8.358;2022-07-19T06:41:11;6.60;;;2.45;;
72275;SDS011;61204;49.980;8.358;2022-07-19T06:43:41;8.73;;;2.88;;
72275;SDS011;61204;49.980;8.358;2022-07-19T06:46:08;11.15;;;2.45;;
72275;SDS011;61204;49.980;8.358;2022-07-19T06:48:34;9.35;;;2.40;;
72275;SDS011;61204;49.980;8.358;2022-07-19T06:51:00;6.38;;;2.17;;
72275;SDS011;61204;49.980;8.358;2022-07-19T06:53:26;6.20;;;1.98;;
72275;SDS011;61204;49.980;8.358;2022-07-19T06:55:54;6.00;;;2.35;;
72275;SDS011;61204;49.980;8.358;2022-07-19T06:58:20;8.13;;;1.90;;
72275;SDS011;61204;49.980;8.358;2022-07-19T07:00:45;8.48;;;2.30;;
72275;SDS011;61204;49.980;8.358;2022-07-19T07:03:13;10.35;;;2.42;;
72275;SDS011;61204;49.980;8.358;2022-07-19T07:05:42;11.18;;;2.08;;
72275;SDS011;61204;49.980;8.358;2022-07-19T07:08:08;7.82;;;2.22;;
72275;SDS011;61204;49.980;8.358;2022-07-19T07:10:34;4.65;;;1.60;;
72275;SDS011;61204;49.980;8.358;2022-07-19T07:13:00;7.80;;;1.90;;
72275;SDS011;61204;49.980;8.358;2022-07-19T07:15:31;8.05;;;2.20;;
72275;SDS011;61204;49.980;8.358;2022-07-19T07:17:57;10.70;;;2.10;;
72275;SDS011;61204;49.980;8.358;2022-07-19T07:20:23;11.98;;;2.20;;
72275;SDS011;61204;49.980;8.358;2022-07-19T07:22:48;12.43;;;1.95;;
72275;SDS011;61204;49.980;8.358;2022-07-19T07:25:15;5.00;;;1.98;;
72275;SDS011;61204;49.980;8.358;2022-07-19T07:27:40;5.72;;;1.77;;
72275;SDS011;61204;49.980;8.358;2022-07-19T07:30:06;5.28;;;1.58;;
72275;SDS011;61204;49.980;8.358;2022-07-19T07:32:33;5.78;;;1.92;;
72275;SDS011;61204;49.980;8.358;2022-07-19T07:34:59;7.43;;;2.20;;
72275;SDS011;61204;49.980;8.358;2022-07-19T07:37:25;6.05;;;1.98;;
72275;SDS011;61204;49.980;8.358;2022-07-19T07:39:51;4.75;;;2.05;;
72275;SDS011;61204;49.980;8.358;2022-07-19T07:42:19;9.70;;;2.03;;
72275;SDS011;61204;49.980;8.358;2022-07-19T07:44:45;5.30;;;1.70;;
72275;SDS011;61204;49.980;8.358;2022-07-19T07:47:10;8.02;;;2.17;;
72275;SDS011;61204;49.980;8.358;2022-07-19T07:49:37;9.27;;;2.03;;
72275;SDS011;61204;49.980;8.358;2022-07-19T07:52:03;8.20;;;2.58;;
72275;SDS011;61204;49.980;8.358;2022-07-19T07:54:31;7.90;;;2.20;;
72275;SDS011;61204;49.980;8.358;2022-07-19T07:56:59;8.63;;;2.38;;
72275;SDS011;61204;49.980;8.358;2022-07-19T07:59:26;11.80;;;2.40;;
72275;SDS011;61204;49.980;8.358;2022-07-19T08:01:52;8.48;;;2.03;;
72275;SDS011;61204;49.980;8.358;2022-07-19T08:04:18;11.00;;;2.22;;
72275;SDS011;61204;49.980;8.358;2022-07-19T08:06:43;12.00;;;2.70;;
72275;SDS011;61204;49.980;8.358;2022-07-19T08:09:09;5.70;;;2.20;;
72275;SDS011;61204;49.980;8.358;2022-07-19T08:11:35;9.73;;;2.05;;
72275;SDS011;61204;49.980;8.358;2022-07-19T08:14:00;6.72;;;2.60;;
72275;SDS011;61204;49.980;8.358;2022-07-19T08:16:26;6.07;;;2.03;;
72275;SDS011;61204;49.980;8.358;2022-07-19T08:18:57;5.93;;;1.85;;
72275;SDS011;61204;49.980;8.358;2022-07-19T08:21:25;9.65;;;2.15;;
72275;SDS011;61204;49.980;8.358;2022-07-19T08:23:51;10.35;;;2.10;;
72275;SDS011;61204;49.980;8.358;2022-07-19T08:26:19;9.13;;;2.05;;
72275;SDS011;61204;49.980;8.358;2022-07-19T08:28:45;8.05;;;2.58;;
72275;SDS011;61204;49.980;8.358;2022-07-19T08:31:13;5.68;;;2.40;;
72275;SDS011;61204;49.980;8.358;2022-07-19T08:33:40;8.30;;;1.80;;
72275;SDS011;61204;49.980;8.358;2022-07-19T08:36:06;4.35;;;1.80;;
72275;SDS011;61204;49.980;8.358;2022-07-19T08:38:34;8.27;;;1.80;;
72275;SDS011;61204;49.980;8.358;2022-07-19T08:41:03;10.55;;;2.10;;
72275;SDS011;61204;49.980;8.358;2022-07-19T08:43:31;7.95;;;2.20;;
72275;SDS011;61204;49.980;8.358;2022-07-19T08:46:02;7.15;;;1.65;;
72275;SDS011;61204;49.980;8.358;2022-07-19T08:48:32;8.32;;;2.08;;
72275;SDS011;61204;49.980;8.358;2022-07-19T08:51:02;5.90;;;2.30;;
72275;SDS011;61204;49.980;8.358;2022-07-19T08:53:30;4.32;;;1.75;;
72275;SDS011;61204;49.980;8.358;2022-07-19T08:56:03;7.28;;;1.60;;
72275;SDS011;61204;49.980;8.358;2022-07-19T08:58:49;9.38;;;2.15;;
72275;SDS011;61204;49.980;8.358;2022-07-19T09:01:15;6.70;;;2.17;;
72275;SDS011;61204;49.980;8.358;2022-07-19T09:04:02;4.38;;;1.60;;
72275;SDS011;61204;49.980;8.358;2022-07-19T09:06:57;5.72;;;1.70;;
72275;SDS011;61204;49.980;8.358;2022-07-19T09:09:28;4.15;;;1.42;;
72275;SDS011;61204;49.980;8.358;2022-07-19T09:12:00;8.27;;;1.55;;
72275;SDS011;61204;49.980;8.358;2022-07-19T09:14:31;4.40;;;1.42;;
72275;SDS011;61204;49.980;8.358;2022-07-19T09:17:04;4.85;;;1.60;;
72275;SDS011;61204;49.980;8.358;2022-07-19T09:19:37;4.70;;;1.60;;
72275;SDS011;61204;49.980;8.358;2022-07-19T09:22:07;2.70;;;1.40;;
72275;SDS011;61204;49.980;8.358;2022-07-19T09:24:43;8.27;;;1.92;;
72275;SDS011;61204;49.980;8.358;2022-07-19T09:27:19;5.22;;;1.80;;
72275;SDS011;61204;49.980;8.358;2022-07-19T09:29:54;8.05;;;2.15;;
72275;SDS011;61204;49.980;8.358;2022-07-19T09:32:23;6.15;;;1.58;;
72275;SDS011;61204;49.980;8.358;2022-07-19T09:34:58;3.58;;;1.73;;
72275;SDS011;61204;49.980;8.358;2022-07-19T09:40:06;7.22;;;1.50;;
72275;SDS011;61204;49.980;8.358;2022-07-19T09:42:40;4.15;;;1.30;;
72275;SDS011;61204;49.980;8.358;2022-07-19T09:45:12;5.45;;;1.67;;
72275;SDS011;61204;49.980;8.358;2022-07-19T09:47:43;4.15;;;1.10;;
72275;SDS011;61204;49.980;8.358;2022-07-19T09:50:14;4.28;;;1.45;;
72275;SDS011;61204;49.980;8.358;2022-07-19T09:52:50;2.83;;;1.02;;
72275;SDS011;61204;49.980;8.358;2022-07-19T09:55:18;3.58;;;0.90;;
72275;SDS011;61204;49.980;8.358;2022-07-19T09:57:46;5.45;;;1.17;;
72275;SDS011;61204;49.980;8.358;2022-07-19T10:00:16;2.28;;;0.90;;
72275;SDS011;61204;49.980;8.358;2022-07-19T10:03:07;5.63;;;1.27;;
72275;SDS011;61204;49.980;8.358;2022-07-19T10:05:34;4.15;;;1.30;;
72275;SDS011;61204;49.980;8.358;2022-07-19T10:08:04;4.60;;;1.42;;
72275;SDS011;61204;49.980;8.358;2022-07-19T10:10:31;5.65;;;1.33;;
72275;SDS011;61204;49.980;8.358;2022-07-19T10:12:57;4.63;;;1.38;;
72275;SDS011;61204;49.980;8.358;2022-07-19T10:15:23;3.78;;;1.10;;
72275;SDS011;61204;49.980;8.358;2022-07-19T10:17:58;4.28;;;1.10;;
72275;SDS011;61204;49.980;8.358;2022-07-19T10:20:34;3.55;;;1.25;;
72275;SDS011;61204;49.980;8.358;2022-07-19T10:23:02;1.55;;;1.08;;
72275;SDS011;61204;49.980;8.358;2022-07-19T10:25:39;6.65;;;1.20;;
72275;SDS011;61204;49.980;8.358;2022-07-19T10:30:59;3.67;;;1.25;;
72275;SDS011;61204;49.980;8.358;2022-07-19T10:33:27;2.50;;;1.10;;
72275;SDS011;61204;49.980;8.358;2022-07-19T10:50:06;2.63;;;1.30;;
72275;SDS011;61204;49.980;8.358;2022-07-19T10:52:40;2.75;;;0.93;;
72275;SDS011;61204;49.980;8.358;2022-07-19T10:57:43;5.22;;;1.42;;
72275;SDS011;61204;49.980;8.358;2022-07-19T11:05:48;5.70;;;1.20;;
72275;SDS011;61204;49.980;8.358;2022-07-19T11:13:45;6.35;;;1.52;;
72275;SDS011;61204;49.980;8.358;2022-07-19T11:16:17;3.90;;;1.30;;
72275;SDS011;61204;49.980;8.358;2022-07-19T11:18:44;5.85;;;1.33;;
72275;SDS011;61204;49.980;8.358;2022-07-19T11:21:12;4.03;;;1.23;;
72275;SDS011;61204;49.980;8.358;2022-07-19T11:23:43;6.32;;;1.75;;
72275;SDS011;61204;49.980;8.358;2022-07-19T11:26:11;2.40;;;1.40;;
72275;SDS011;61204;49.980;8.358;2022-07-19T11:28:46;3.92;;;1.40;;
72275;SDS011;61204;49.980;8.358;2022-07-19T11:31:23;5.53;;;1.48;;
72275;SDS011;61204;49.980;8.358;2022-07-19T11:33:52;6.15;;;1.40;;
72275;SDS011;61204;49.980;8.358;2022-07-19T11:36:21;4.32;;;1.35;;
72275;SDS011;61204;49.980;8.358;2022-07-19T11:38:50;9.77;;;1.60;;
72275;SDS011;61204;49.980;8.358;2022-07-19T11:41:28;4.75;;;1.40;;
72275;SDS011;61204;49.980;8.358;2022-07-19T11:43:58;4.72;;;1.40;;
72275;SDS011;61204;49.980;8.358;2022-07-19T11:46:34;5.38;;;1.75;;
72275;SDS011;61204;49.980;8.358;2022-07-19T11:49:06;5.05;;;1.27;;
72275;SDS011;61204;49.980;8.358;2022-07-19T11:51:35;4.15;;;1.48;;
72275;SDS011;61204;49.980;8.358;2022-07-19T11:54:02;3.90;;;1.20;;
72275;SDS011;61204;49.980;8.358;2022-07-19T11:56:32;8.18;;;1.60;;
72275;SDS011;61204;49.980;8.358;2022-07-19T11:59:01;7.03;;;1.70;;
72275;SDS011;61204;49.980;8.358;2022-07-19T12:01:36;6.93;;;1.92;;
72275;SDS011;61204;49.980;8.358;2022-07-19T12:04:06;3.17;;;1.33;;
72275;SDS011;61204;49.980;8.358;2022-07-19T12:09:28;6.13;;;1.55;;
72275;SDS011;61204;49.980;8.358;2022-07-19T12:11:58;2.63;;;1.58;;
72275;SDS011;61204;49.980;8.358;2022-07-19T12:14:36;4.55;;;1.67;;
72275;SDS011;61204;49.980;8.358;2022-07-19T12:19:50;6.25;;;1.85;;
72275;SDS011;61204;49.980;8.358;2022-07-19T12:22:36;4.30;;;1.60;;
72275;SDS011;61204;49.980;8.358;2022-07-19T12:25:06;6.43;;;2.00;;
72275;SDS011;61204;49.980;8.358;2022-07-19T12:27:34;5.20;;;1.40;;
72275;SDS011;61204;49.980;8.358;2022-07-19T12:30:01;5.70;;;1.77;;
72275;SDS011;61204;49.980;8.358;2022-07-19T12:32:30;1.77;;;1.35;;
72275;SDS011;61204;49.980;8.358;2022-07-19T12:35:01;4.53;;;1.42;;
72275;SDS011;61204;49.980;8.358;2022-07-19T12:42:43;3.05;;;1.33;;
72275;SDS011;61204;49.980;8.358;2022-07-19T12:45:27;3.30;;;1.40;;
72275;SDS011;61204;49.980;8.358;2022-07-19T12:47:54;4.93;;;1.70;;
72275;SDS011;61204;49.980;8.358;2022-07-19T12:50:24;4.65;;;1.88;;
72275;SDS011;61204;49.980;8.358;2022-07-19T12:53:14;3.38;;;1.25;;
72275;SDS011;61204;49.980;8.358;2022-07-19T12:55:42;4.85;;;1.58;;
72275;SDS011;61204;49.980;8.358;2022-07-19T12:58:10;6.75;;;1.55;;
72275;SDS011;61204;49.980;8.358;2022-07-19T13:01:00;3.53;;;1.63;;
72275;SDS011;61204;49.980;8.358;2022-07-19T13:03:26;3.15;;;1.60;;
72275;SDS011;61204;49.980;8.358;2022-07-19T13:05:52;4.18;;;1.30;;
72275;SDS011;61204;49.980;8.358;2022-07-19T13:08:19;2.58;;;1.67;;
72275;SDS011;61204;49.980;8.358;2022-07-19T13:10:45;9.05;;;1.60;;
72275;SDS011;61204;49.980;8.358;2022-07-19T13:13:11;2.47;;;1.50;;
72275;SDS011;61204;49.980;8.358;2022-07-19T13:15:36;3.63;;;1.48;;
72275;SDS011;61204;49.980;8.358;2022-07-19T13:18:02;3.92;;;1.45;;
72275;SDS011;61204;49.980;8.358;2022-07-19T13:20:28;11.90;;;2.05;;
72275;SDS011;61204;49.980;8.358;2022-07-19T13:22:54;6.63;;;1.60;;
72275;SDS011;61204;49.980;8.358;2022-07-19T13:25:20;3.28;;;1.55;;
72275;SDS011;61204;49.980;8.358;2022-07-19T13:27:46;11.93;;;2.03;;
72275;SDS011;61204;49.980;8.358;2022-07-19T13:30:11;3.90;;;1.70;;
72275;SDS011;61204;49.980;8.358;2022-07-19T13:32:38;4.88;;;1.85;;
72275;SDS011;61204;49.980;8.358;2022-07-19T13:35:08;6.43;;;1.80;;
72275;SDS011;61204;49.980;8.358;2022-07-19T13:37:34;2.92;;;1.48;;
72275;SDS011;61204;49.980;8.358;2022-07-19T13:39:59;11.32;;;1.80;;
72275;SDS011;61204;49.980;8.358;2022-07-19T13:42:25;3.22;;;1.65;;
72275;SDS011;61204;49.980;8.358;2022-07-19T13:44:51;4.22;;;1.65;;
72275;SDS011;61204;49.980;8.358;2022-07-19T13:47:16;4.47;;;1.58;;
72275;SDS011;61204;49.980;8.358;2022-07-19T13:49:44;4.55;;;1.55;;
72275;SDS011;61204;49.980;8.358;2022-07-19T13:52:10;6.22;;;1.40;;
72275;SDS011;61204;49.980;8.358;2022-07-19T13:54:36;5.70;;;1.63;;
72275;SDS011;61204;49.980;8.358;2022-07-19T13:57:02;5.25;;;1.67;;
72275;SDS011;61204;49.980;8.358;2022-07-19T13:59:30;3.05;;;1.63;;
72275;SDS011;61204;49.980;8.358;2022-07-19T14:01:56;3.75;;;1.75;;
72275;SDS011;61204;49.980;8.358;2022-07-19T14:04:25;6.65;;;1.70;;
72275;SDS011;61204;49.980;8.358;2022-07-19T14:06:51;2.47;;;1.48;;
72275;SDS011;61204;49.980;8.358;2022-07-19T14:09:19;7.78;;;1.70;;
72275;SDS011;61204;49.980;8.358;2022-07-19T14:11:44;3.00;;;1.80;;
72275;SDS011;61204;49.980;8.358;2022-07-19T14:14:10;4.82;;;1.65;;
72275;SDS011;61204;49.980;8.358;2022-07-19T14:16:37;12.90;;;2.20;;
72275;SDS011;61204;49.980;8.358;2022-07-19T14:19:02;3.05;;;1.67;;
72275;SDS011;61204;49.980;8.358;2022-07-19T14:21:28;5.93;;;1.83;;
72275;SDS011;61204;49.980;8.358;2022-07-19T14:23:59;5.95;;;1.77;;
72275;SDS011;61204;49.980;8.358;2022-07-19T14:26:27;4.03;;;1.65;;
72275;SDS011;61204;49.980;8.358;2022-07-19T14:28:53;4.10;;;1.50;;
72275;SDS011;61204;49.980;8.358;2022-07-19T14:31:21;6.15;;;1.83;;
72275;SDS011;61204;49.980;8.358;2022-07-19T14:33:52;2.58;;;1.58;;
72275;SDS011;61204;49.980;8.358;2022-07-19T14:36:18;5.00;;;1.70;;
72275;SDS011;61204;49.980;8.358;2022-07-19T14:38:43;4.18;;;1.80;;
72275;SDS011;61204;49.980;8.358;2022-07-19T14:41:09;5.50;;;1.70;;
72275;SDS011;61204;49.980;8.358;2022-07-19T14:43:35;6.85;;;1.90;;
72275;SDS011;61204;49.980;8.358;2022-07-19T14:46:00;4.95;;;1.88;;
72275;SDS011;61204;49.980;8.358;2022-07-19T14:48:28;4.10;;;1.77;;
72275;SDS011;61204;49.980;8.358;2022-07-19T14:50:54;5.88;;;1.50;;
72275;SDS011;61204;49.980;8.358;2022-07-19T14:53:20;3.95;;;2.03;;
72275;SDS011;61204;49.980;8.358;2022-07-19T14:55:46;2.70;;;1.85;;
72275;SDS011;61204;49.980;8.358;2022-07-19T14:58:11;5.60;;;2.25;;
72275;SDS011;61204;49.980;8.358;2022-07-19T15:00:40;5.43;;;1.42;;
72275;SDS011;61204;49.980;8.358;2022-07-19T15:03:06;6.03;;;1.92;;
72275;SDS011;61204;49.980;8.358;2022-07-19T15:05:32;7.15;;;1.75;;
72275;SDS011;61204;49.980;8.358;2022-07-19T15:08:00;4.43;;;1.75;;
72275;SDS011;61204;49.980;8.358;2022-07-19T15:10:26;4.63;;;1.40;;
72275;SDS011;61204;49.980;8.358;2022-07-19T15:12:52;6.03;;;1.90;;
72275;SDS011;61204;49.980;8.358;2022-07-19T15:15:17;6.15;;;1.65;;
72275;SDS011;61204;49.980;8.358;2022-07-19T15:17:45;3.85;;;1.75;;
72275;SDS011;61204;49.980;8.358;2022-07-19T15:20:11;4.00;;;1.70;;
72275;SDS011;61204;49.980;8.358;2022-07-19T15:22:37;3.55;;;1.80;;
72275;SDS011;61204;49.980;8.358;2022-07-19T15:25:04;4.30;;;1.92;;
72275;SDS011;61204;49.980;8.358;2022-07-19T15:27:33;5.47;;;1.60;;
72275;SDS011;61204;49.980;8.358;2022-07-19T15:30:00;2.58;;;1.70;;
72275;SDS011;61204;49.980;8.358;2022-07-19T15:32:26;7.05;;;1.95;;
72275;SDS011;61204;49.980;8.358;2022-07-19T15:34:52;4.50;;;1.88;;
72275;SDS011;61204;49.980;8.358;2022-07-19T15:37:17;2.53;;;1.70;;
72275;SDS011;61204;49.980;8.358;2022-07-19T15:39:45;4.50;;;1.92;;
72275;SDS011;61204;49.980;8.358;2022-07-19T15:42:12;4.10;;;1.73;;